Time;durP1;ratioP1;P1;durP2;ratioP2;P2;SDS_P1;SDS_P2;PMS_P1;PMS_P2;Temp;Humidity;BMP_temperature;BMP_pressure;BME280_temperature;BME280_humidity;BME280_pressure;Samples;Min_cycle;Max_cycle;Signal;HPM_P1;HPM_P2
2022/05/26 00:02:19;;;;;;;14.77;8.38;;;14.00;99.90;;;;;;4974842;28;20038;-83
2022/05/26 00:04:45;;;;;;;15.80;8.65;;;14.00;99.90;;;;;;4974817;28;20124;-83
2022/05/26 00:07:10;;;;;;;17.58;8.48;;;14.00;99.90;;;;;;4974723;28;20042;-82
2022/05/26 00:09:36;;;;;;;16.65;8.85;;;14.00;99.90;;;;;;4958335;28;20042;-83
2022/05/26 00:12:02;;;;;;;15.63;8.30;;;14.00;99.90;;;;;;4974857;28;20043;-83
2022/05/26 00:14:29;;;;;;;15.07;8.50;;;14.00;99.90;;;;;;4958412;28;20069;-83
2022/05/26 00:16:55;;;;;;;21.52;9.18;;;14.00;99.90;;;;;;4958498;28;20496;-83
2022/05/26 00:19:21;;;;;;;15.50;8.55;;;14.00;99.90;;;;;;4976617;28;20048;-83
2022/05/26 00:21:49;;;;;;;16.23;9.30;;;14.00;99.90;;;;;;4978316;28;20134;-83
2022/05/26 00:24:18;;;;;;;16.17;9.68;;;14.00;99.90;;;;;;4978268;28;20104;-84
2022/05/26 00:26:44;;;;;;;19.17;13.85;;;14.00;99.90;;;;;;4962244;28;20399;-83
2022/05/26 00:29:11;;;;;;;17.40;10.13;;;14.00;99.90;;;;;;4978027;28;20056;-83
2022/05/26 00:31:37;;;;;;;21.58;13.95;;;14.00;99.90;;;;;;4978095;28;20050;-84
2022/05/26 00:34:03;;;;;;;16.80;9.73;;;14.00;99.90;;;;;;4977982;28;20045;-83
2022/05/26 00:36:37;;;;;;;19.08;9.68;;;14.00;99.90;;;;;;4978031;28;20501;-83
2022/05/26 00:39:12;;;;;;;19.60;9.48;;;13.90;99.90;;;;;;4961462;28;20034;-83
2022/05/26 00:41:40;;;;;;;21.17;14.23;;;13.90;99.90;;;;;;4978235;28;20109;-83
2022/05/26 00:44:06;;;;;;;20.90;15.15;;;13.90;99.90;;;;;;4961768;28;20046;-83
2022/05/26 00:46:59;;;;;;;21.55;10.63;;;14.00;99.90;;;;;;4977809;28;20105;-84
2022/05/26 00:49:44;;;;;;;18.75;8.85;;;14.00;99.90;;;;;;4977415;28;20048;-83
2022/05/26 00:52:14;;;;;;;17.42;10.23;;;13.90;99.90;;;;;;4977724;28;20038;-83
2022/05/26 00:54:41;;;;;;;17.42;9.40;;;13.90;99.90;;;;;;4977684;28;20496;-83
2022/05/26 00:57:13;;;;;;;17.08;14.07;;;14.00;99.90;;;;;;4961624;28;20046;-83
2022/05/26 00:59:52;;;;;;;18.90;10.73;;;14.00;99.90;;;;;;4977632;28;20038;-83
2022/05/26 01:02:22;;;;;;;16.50;10.32;;;14.00;99.90;;;;;;4961482;28;20496;-83
2022/05/26 01:04:53;;;;;;;15.23;9.13;;;13.90;99.90;;;;;;4977544;28;20093;-84
2022/05/26 01:07:25;;;;;;;19.88;14.35;;;13.90;99.90;;;;;;4961414;28;20100;-85
2022/05/26 01:09:51;;;;;;;;;;;14.00;99.90;;;;;;4961644;28;20096;-84
2022/05/26 01:12:17;;;;;;;18.83;10.52;;;14.00;99.90;;;;;;4961507;28;19921;-84
2022/05/26 01:14:53;;;;;;;19.75;10.82;;;14.00;99.90;;;;;;4977350;28;20038;-84
2022/05/26 01:17:43;;;;;;;20.38;15.27;;;14.00;99.90;;;;;;4961294;28;20514;-84
2022/05/26 01:20:09;;;;;;;17.23;10.85;;;14.00;99.90;;;;;;4977292;28;20553;-84
2022/05/26 01:23:11;;;;;;;20.65;10.73;;;14.00;99.90;;;;;;4961150;28;20121;-84
2022/05/26 01:25:54;;;;;;;22.05;11.32;;;14.00;99.90;;;;;;4977215;28;20042;-84
2022/05/26 01:28:38;;;;;;;19.95;12.05;;;14.00;99.90;;;;;;4960693;28;20125;-84
2022/05/26 01:31:23;;;;;;;23.23;11.50;;;14.00;99.90;;;;;;4976842;28;20038;-84
2022/05/26 01:34:10;;;;;;;25.38;16.35;;;14.00;99.90;;;;;;4976984;28;20038;-84
2022/05/26 01:37:14;;;;;;;23.42;16.60;;;14.00;99.90;;;;;;4977046;28;20413;-84
2022/05/26 01:39:57;;;;;;;22.42;11.32;;;14.00;99.90;;;;;;4960547;28;20519;-84
2022/05/26 01:42:45;;;;;;;19.83;11.23;;;13.90;99.90;;;;;;4977073;28;20407;-84
2022/05/26 01:45:31;;;;;;;22.98;11.65;;;13.90;99.90;;;;;;4976868;28;20038;-84
2022/05/26 01:48:14;;;;;;;28.73;13.65;;;13.90;99.90;;;;;;4976357;28;20061;-84
2022/05/26 01:51:14;;;;;;;22.60;12.88;;;13.80;99.90;;;;;;4976836;28;20081;-84
2022/05/26 01:53:54;;;;;;;21.52;11.90;;;13.80;99.90;;;;;;4976740;28;20401;-85
2022/05/26 01:56:43;;;;;;;24.83;16.48;;;13.80;99.90;;;;;;4976582;28;20042;-85
2022/05/26 01:59:15;;;;;;;24.88;13.70;;;13.80;99.90;;;;;;4976204;28;20042;-84
2022/05/26 02:01:46;;;;;;;20.67;10.88;;;13.80;99.90;;;;;;4976549;28;20546;-84
2022/05/26 02:04:21;;;;;;;23.63;12.73;;;13.80;99.90;;;;;;4976628;28;20400;-84
2022/05/26 02:07:06;;;;;;;24.83;13.85;;;13.80;99.90;;;;;;4976335;28;20475;-84
2022/05/26 02:09:41;;;;;;;23.33;12.00;;;13.80;99.90;;;;;;4959860;28;20500;-84
2022/05/26 02:12:12;;;;;;;23.58;12.35;;;13.80;99.90;;;;;;4976555;28;20125;-84
2022/05/26 02:14:54;;;;;;;29.55;18.48;;;13.80;99.90;;;;;;4976188;28;20042;-85
2022/05/26 02:17:28;;;;;;;26.15;12.40;;;13.80;99.90;;;;;;4976150;28;20566;-85
2022/05/26 02:19:59;;;;;;;23.63;11.70;;;13.80;99.90;;;;;;4959912;28;20046;-84
2022/05/26 02:22:30;;;;;;;27.83;13.13;;;13.80;99.90;;;;;;4976117;28;20409;-84
2022/05/26 02:25:06;;;;;;;26.20;13.40;;;13.80;99.90;;;;;;4976069;28;20575;-84
2022/05/26 02:27:33;;;;;;;23.13;12.95;;;13.80;99.90;;;;;;4975899;28;20050;-84
2022/05/26 02:30:01;;;;;;;29.23;12.88;;;13.80;99.90;;;;;;4975868;28;20043;-84
2022/05/26 02:32:33;;;;;;;24.77;13.52;;;13.80;99.90;;;;;;4976114;28;20046;-85
2022/05/26 02:35:01;;;;;;;23.85;11.85;;;13.80;99.90;;;;;;4975783;28;20048;-84
2022/05/26 02:37:28;;;;;;;25.67;14.20;;;13.80;99.90;;;;;;4975836;28;20539;-84
2022/05/26 02:39:54;;;;;;;24.70;13.00;;;13.80;99.90;;;;;;4959438;28;20072;-84
2022/05/26 02:42:21;;;;;;;25.90;14.45;;;13.80;99.90;;;;;;4959074;28;20069;-84
2022/05/26 02:44:47;;;;;;;24.08;14.65;;;13.80;99.90;;;;;;4959562;28;20082;-84
2022/05/26 02:47:36;;;;;;;25.10;13.82;;;13.80;99.90;;;;;;4975627;28;20121;-84
2022/05/26 02:50:13;;;;;;;25.73;13.13;;;13.80;99.90;;;;;;4975640;28;20042;-85
2022/05/26 02:53:14;;;;;;;33.25;16.38;;;13.80;99.90;;;;;;4975576;28;20057;-84
2022/05/26 02:55:58;;;;;;;30.10;19.23;;;13.90;99.90;;;;;;4975537;28;20046;-84
2022/05/26 02:58:48;;;;;;;28.83;13.90;;;13.90;99.90;;;;;;4959107;28;20038;-84
2022/05/26 03:01:32;;;;;;;25.60;13.30;;;13.90;99.90;;;;;;4959607;28;20045;-84
2022/05/26 03:04:18;;;;;;;27.42;14.65;;;13.90;99.90;;;;;;4975647;28;20145;-84
2022/05/26 03:06:54;;;;;;;34.70;19.52;;;13.90;99.90;;;;;;4975400;28;20503;-84
2022/05/26 03:09:21;;;;;;;32.67;18.98;;;14.00;99.90;;;;;;4974946;28;20042;-84
2022/05/26 03:11:56;;;;;;;31.90;18.63;;;14.00;99.90;;;;;;4975556;28;20121;-84
2022/05/26 03:14:22;;;;;;;32.92;13.88;;;14.10;99.90;;;;;;4975326;28;20121;-84
2022/05/26 03:16:48;;;;;;;30.13;17.85;;;14.10;99.90;;;;;;4975224;28;20500;-84
2022/05/26 03:19:14;;;;;;;26.15;13.45;;;14.10;99.90;;;;;;4974691;28;20039;-84
2022/05/26 03:21:40;;;;;;;33.22;18.73;;;14.10;99.90;;;;;;4975139;28;20545;-84
2022/05/26 03:24:07;;;;;;;25.10;13.40;;;14.10;99.90;;;;;;4975060;28;20121;-84
2022/05/26 03:26:33;;;;;;;32.67;18.10;;;14.10;99.90;;;;;;4959027;28;20050;-84
2022/05/26 03:28:59;;;;;;;27.50;13.27;;;14.20;99.90;;;;;;4974559;28;20051;-84
2022/05/26 03:31:25;;;;;;;26.83;14.18;;;14.20;99.90;;;;;;4975373;28;20053;-85
2022/05/26 03:42:17;;;;;;;26.48;12.65;;;14.10;99.90;;;;;;4956855;28;20066;-85
2022/05/26 03:44:43;;;;;;;30.45;16.55;;;14.10;99.90;;;;;;4975107;28;20042;-84
2022/05/26 03:47:09;;;;;;;29.45;12.13;;;14.20;99.90;;;;;;4974863;28;20053;-85
2022/05/26 03:49:34;;;;;;;33.10;13.88;;;14.20;99.90;;;;;;4974730;28;20408;-85
2022/05/26 03:52:00;;;;;;;34.42;16.35;;;14.20;99.90;;;;;;4975203;28;20038;-84
2022/05/26 03:54:26;;;;;;;29.45;11.60;;;14.20;99.90;;;;;;4978618;28;20038;-85
2022/05/26 03:56:52;;;;;;;34.42;16.80;;;14.20;99.90;;;;;;4978824;28;20047;-84
2022/05/26 03:59:17;;;;;;;30.88;11.10;;;14.30;99.90;;;;;;4978502;28;20722;-84
2022/05/26 04:01:43;;;;;;;31.15;16.00;;;14.20;99.90;;;;;;4978722;28;20038;-85
2022/05/26 04:04:09;;;;;;;28.17;10.40;;;14.30;99.90;;;;;;4962411;28;20049;-84
2022/05/26 04:06:36;;;;;;;27.08;12.43;;;14.20;99.90;;;;;;4978632;28;20042;-85
2022/05/26 04:09:02;;;;;;;27.60;11.35;;;14.20;99.90;;;;;;4978163;28;20054;-85
2022/05/26 04:11:28;;;;;;;34.28;14.10;;;14.20;99.90;;;;;;4978655;28;20109;-84
2022/05/26 04:13:54;;;;;;;29.98;10.70;;;14.20;99.90;;;;;;4978369;28;20181;-84
2022/05/26 04:16:20;;;;;;;32.08;14.10;;;14.20;99.90;;;;;;4978433;28;20077;-85
2022/05/26 04:18:46;;;;;;;28.02;10.13;;;14.30;99.90;;;;;;4977952;28;20439;-85
2022/05/26 04:21:13;;;;;;;33.10;13.63;;;14.30;99.90;;;;;;4978634;28;20125;-84
2022/05/26 04:23:39;;;;;;;28.02;9.90;;;14.30;99.90;;;;;;4978537;28;20050;-85
2022/05/26 04:26:07;;;;;;;28.20;9.63;;;14.30;99.90;;;;;;4978194;28;20044;-85
2022/05/26 04:28:33;;;;;;;28.42;9.68;;;14.30;99.90;;;;;;4978157;28;20403;-84
2022/05/26 04:30:59;;;;;;;31.05;9.00;;;14.30;99.90;;;;;;4978179;28;20069;-84
2022/05/26 04:33:25;;;;;;;32.65;8.52;;;14.30;99.90;;;;;;4978054;28;20636;-84
2022/05/26 04:35:50;;;;;;;26.60;8.27;;;14.30;99.90;;;;;;4961964;28;20050;-85
2022/05/26 04:38:16;;;;;;;32.92;9.35;;;14.30;99.90;;;;;;4961703;28;20126;-84
2022/05/26 04:40:43;;;;;;;27.45;8.68;;;14.30;99.90;;;;;;4978170;28;20057;-85
2022/05/26 04:43:10;;;;;;;21.63;6.75;;;14.30;99.90;;;;;;4977847;28;20038;-85
2022/05/26 04:45:36;;;;;;;26.35;7.15;;;14.30;99.90;;;;;;4978234;28;20046;-84
2022/05/26 04:48:02;;;;;;;27.13;9.73;;;14.30;99.90;;;;;;4977551;28;20085;-84
2022/05/26 04:50:27;;;;;;;28.02;6.30;;;14.40;99.90;;;;;;4978005;28;20080;-84
2022/05/26 04:52:53;;;;;;;16.83;4.45;;;14.40;99.90;;;;;;4977991;28;20046;-84
2022/05/26 04:55:18;;;;;;;23.20;5.18;;;14.40;99.90;;;;;;4977609;28;20031;-84
2022/05/26 04:57:44;;;;;;;15.65;4.55;;;14.40;99.90;;;;;;4977470;28;20034;-84
2022/05/26 05:00:14;;;;;;;19.02;5.50;;;14.40;99.90;;;;;;4977604;28;20082;-85
2022/05/26 05:02:40;;;;;;;16.25;3.00;;;14.40;99.90;;;;;;4961685;28;20066;-84
2022/05/26 05:05:06;;;;;;;18.60;3.47;;;14.40;99.90;;;;;;4976844;28;20042;-84
2022/05/26 05:07:32;;;;;;;15.18;3.88;;;14.40;99.90;;;;;;4977424;28;20045;-83
2022/05/26 05:09:57;;;;;;;13.93;3.25;;;14.40;99.90;;;;;;4961100;28;20558;-83
2022/05/26 05:12:24;;;;;;;15.43;3.95;;;14.50;99.90;;;;;;4977448;28;20100;-84
2022/05/26 05:14:53;;;;;;;11.30;2.50;;;14.40;99.90;;;;;;4977333;28;20062;-84
2022/05/26 05:17:20;;;;;;;12.23;3.20;;;14.40;99.90;;;;;;4961120;28;20057;-84
2022/05/26 05:19:47;;;;;;;13.23;2.47;;;14.50;99.90;;;;;;4977206;28;20042;-84
2022/05/26 05:22:25;;;;;;;16.05;2.45;;;14.50;99.90;;;;;;4977122;28;20500;-84
2022/05/26 05:24:59;;;;;;;13.13;3.30;;;14.50;99.90;;;;;;4977230;28;20042;-84
2022/05/26 05:27:40;;;;;;;10.07;2.42;;;14.60;99.90;;;;;;4977142;28;20065;-85
2022/05/26 05:30:17;;;;;;;12.20;2.42;;;14.60;99.90;;;;;;4976555;28;20042;-85
2022/05/26 05:33:02;;;;;;;13.77;3.28;;;14.60;99.90;;;;;;4976463;28;20054;-85
2022/05/26 05:35:35;;;;;;;14.40;2.58;;;14.60;99.90;;;;;;4959416;28;20042;-84
2022/05/26 05:38:01;;;;;;;9.60;1.92;;;14.60;99.90;;;;;;4958838;28;20479;-85
2022/05/26 05:40:27;;;;;;;10.45;2.10;;;14.60;99.90;;;;;;4974924;28;20161;-85
2022/05/26 05:42:53;;;;;;;13.85;2.15;;;14.70;99.90;;;;;;4992729;28;20073;-85
2022/05/26 05:45:19;;;;;;;11.95;3.00;;;14.80;99.90;;;;;;4976557;28;20061;-85
2022/05/26 05:47:44;;;;;;;11.60;2.67;;;14.80;99.90;;;;;;4975960;28;20488;-85
2022/05/26 05:50:10;;;;;;;10.63;2.17;;;14.90;99.90;;;;;;4976211;28;20046;-85
2022/05/26 05:52:36;;;;;;;11.30;2.58;;;14.90;99.90;;;;;;4976261;28;20412;-85
2022/05/26 05:55:04;;;;;;;15.27;3.33;;;14.90;99.90;;;;;;4976131;28;20466;-85
2022/05/26 05:57:30;;;;;;;10.38;2.53;;;14.90;99.90;;;;;;4980760;28;20042;-85
2022/05/26 05:59:56;;;;;;;16.20;2.92;;;15.00;99.90;;;;;;4976134;28;20056;-85
2022/05/26 06:02:21;;;;;;;12.00;3.15;;;15.00;99.90;;;;;;4976015;28;20524;-84
2022/05/26 06:04:47;;;;;;;17.58;2.63;;;15.00;99.90;;;;;;4959690;28;20041;-85
2022/05/26 06:07:15;;;;;;;10.95;2.15;;;15.10;99.90;;;;;;4976168;28;20133;-84
2022/05/26 06:09:41;;;;;;;12.10;2.40;;;15.00;99.90;;;;;;4959388;28;20045;-85
2022/05/26 06:12:08;;;;;;;8.85;1.67;;;15.10;99.90;;;;;;4975828;28;20081;-84
2022/05/26 06:14:34;;;;;;;10.73;2.17;;;15.20;99.90;;;;;;4975424;28;20396;-84
2022/05/26 06:17:00;;;;;;;10.88;1.90;;;15.20;99.90;;;;;;4974590;28;20081;-84
2022/05/26 06:19:26;;;;;;;11.60;2.17;;;15.20;99.90;;;;;;4975089;28;20113;-85
2022/05/26 06:21:52;;;;;;;10.02;2.10;;;15.20;99.90;;;;;;4974954;28;20031;-85
2022/05/26 06:24:22;;;;;;;10.23;2.05;;;15.20;99.90;;;;;;4959366;28;20042;-85
2022/05/26 06:26:48;;;;;;;8.27;2.05;;;15.30;99.90;;;;;;4975057;28;20512;-85
2022/05/26 06:37:29;;;;;;;9.43;1.77;;;15.40;99.90;;;;;;4973992;28;20066;-85
2022/05/26 06:39:55;;;;;;;5.93;1.42;;;15.50;99.90;;;;;;4972816;28;20064;-85
2022/05/26 06:42:24;;;;;;;5.13;1.02;;;15.60;99.90;;;;;;4975120;28;20038;-85
2022/05/26 06:44:50;;;;;;;8.85;1.38;;;15.60;99.90;;;;;;4999767;28;20034;-85
2022/05/26 06:47:18;;;;;;;7.78;1.88;;;15.60;99.90;;;;;;4973998;28;20031;-85
2022/05/26 06:49:45;;;;;;;8.55;1.50;;;15.70;99.90;;;;;;4972003;28;20035;-85
2022/05/26 06:52:12;;;;;;;6.90;1.65;;;15.70;99.90;;;;;;4974395;28;20042;-85
2022/05/26 06:54:41;;;;;;;8.10;1.55;;;15.70;99.90;;;;;;4998340;28;20125;-85
2022/05/26 06:57:08;;;;;;;6.53;1.30;;;15.80;99.90;;;;;;4981332;28;20474;-85
2022/05/26 06:59:34;;;;;;;11.48;1.90;;;15.90;99.90;;;;;;4974334;28;20045;-85
2022/05/26 07:02:00;;;;;;;8.30;1.65;;;16.00;99.90;;;;;;4974950;28;20041;-85
2022/05/26 07:04:26;;;;;;;7.38;1.60;;;16.00;99.90;;;;;;4958449;28;20412;-85
2022/05/26 07:06:53;;;;;;;9.23;1.60;;;16.20;99.90;;;;;;4974700;28;20042;-85
2022/05/26 07:09:20;;;;;;;9.05;1.98;;;16.30;99.90;;;;;;4998751;28;20048;-85
2022/05/26 07:11:46;;;;;;;8.52;1.50;;;16.40;99.90;;;;;;4974750;28;20040;-85
2022/05/26 07:14:13;;;;;;;7.40;1.60;;;16.30;99.90;;;;;;4971393;28;20034;-85
2022/05/26 07:16:40;;;;;;;8.25;1.85;;;16.40;99.90;;;;;;4955878;28;20045;-85
2022/05/26 07:19:05;;;;;;;10.70;1.38;;;16.30;99.90;;;;;;4955108;28;20049;-85
2022/05/26 07:21:31;;;;;;;6.80;1.30;;;16.20;99.90;;;;;;4957734;28;20129;-83
2022/05/26 07:23:57;;;;;;;7.22;1.50;;;16.20;99.90;;;;;;4984486;28;20142;-84
2022/05/26 07:26:24;;;;;;;6.57;1.20;;;16.20;99.90;;;;;;4994436;28;20406;-85
2022/05/26 07:28:51;;;;;;;6.93;1.33;;;16.10;99.90;;;;;;4993892;28;20042;-85
2022/05/26 07:31:18;;;;;;;9.20;1.80;;;16.10;99.90;;;;;;4994416;28;20042;-85
2022/05/26 07:33:44;;;;;;;9.05;1.55;;;16.20;99.90;;;;;;4994627;28;20034;-85
2022/05/26 07:41:16;;;;;;;7.28;1.52;;;16.30;99.90;;;;;;4978249;28;20507;-85
2022/05/26 07:41:41;;;;;;;7.85;1.48;;;16.50;99.90;;;;;;4994357;28;20077;-84
2022/05/26 07:44:07;;;;;;;5.10;1.40;;;16.60;99.90;;;;;;4994211;28;20049;-85
2022/05/26 07:46:32;;;;;;;9.05;1.30;;;16.70;99.90;;;;;;4994534;28;20100;-85
2022/05/26 07:48:58;;;;;;;7.93;1.35;;;16.60;99.90;;;;;;4993697;28;20080;-85
2022/05/26 07:51:24;;;;;;;7.28;1.45;;;16.70;99.90;;;;;;4978019;28;20091;-85
2022/05/26 07:53:50;;;;;;;6.95;1.30;;;16.70;99.90;;;;;;4994176;28;20458;-85
2022/05/26 07:56:17;;;;;;;5.90;1.30;;;16.80;99.90;;;;;;4994222;28;20042;-85
2022/05/26 07:58:43;;;;;;;7.53;1.67;;;16.90;99.90;;;;;;4993654;28;20042;-85
2022/05/26 08:01:10;;;;;;;6.05;1.10;;;16.90;99.90;;;;;;4978189;28;20041;-85
2022/05/26 08:03:38;;;;;;;4.38;0.93;;;16.90;99.90;;;;;;4994427;28;20054;-85
2022/05/26 08:06:04;;;;;;;5.57;1.10;;;16.90;99.90;;;;;;4994049;28;20060;-85
2022/05/26 08:08:32;;;;;;;5.57;1.10;;;16.90;99.90;;;;;;4993854;28;20088;-85
2022/05/26 08:10:57;;;;;;;6.70;1.33;;;17.00;99.90;;;;;;4994278;28;20054;-85
2022/05/26 08:13:23;;;;;;;7.00;1.50;;;17.00;99.90;;;;;;4994197;28;20038;-85
2022/05/26 08:15:49;;;;;;;7.32;1.10;;;17.00;99.90;;;;;;4994015;28;20549;-85
2022/05/26 08:18:15;;;;;;;5.88;1.20;;;17.00;99.90;;;;;;4993560;28;20068;-85
2022/05/26 08:20:41;;;;;;;9.30;1.65;;;17.10;99.90;;;;;;4977895;28;20056;-85
2022/05/26 08:23:07;;;;;;;7.30;1.42;;;17.10;99.90;;;;;;4994143;28;20046;-85
2022/05/26 08:25:34;;;;;;;5.80;1.00;;;17.10;99.90;;;;;;4977754;28;20038;-85
2022/05/26 08:28:00;;;;;;;5.65;1.10;;;17.20;99.90;;;;;;4977684;28;20048;-85
2022/05/26 08:30:26;;;;;;;7.70;1.50;;;17.20;99.90;;;;;;4994209;28;20042;-85
2022/05/26 08:32:53;;;;;;;6.75;1.38;;;17.20;99.90;;;;;;4993939;28;20042;-85
2022/05/26 08:35:19;;;;;;;6.30;1.00;;;17.30;99.90;;;;;;4994122;28;20398;-85
2022/05/26 08:37:45;;;;;;;6.32;1.42;;;17.30;99.90;;;;;;4977613;28;20554;-85
2022/05/26 08:40:32;;;;;;;6.20;1.15;;;17.30;99.90;;;;;;4979567;28;20030;-86
2022/05/26 08:42:58;;;;;;;6.47;1.20;;;17.40;99.90;;;;;;4997411;28;20045;-86
2022/05/26 08:45:24;;;;;;;6.40;1.20;;;17.30;99.90;;;;;;4997720;28;20050;-86
2022/05/26 08:47:51;;;;;;;7.25;1.10;;;17.40;99.90;;;;;;4981076;28;20038;-85
2022/05/26 08:50:28;;;;;;;8.48;1.20;;;17.40;99.90;;;;;;4997242;28;20065;-85
2022/05/26 08:52:59;;;;;;;4.53;1.10;;;17.40;99.90;;;;;;4997265;28;20041;-85
2022/05/26 08:55:32;;;;;;;7.57;1.13;;;17.40;99.90;;;;;;4984899;28;20065;-85
2022/05/26 08:58:07;;;;;;;5.60;1.10;;;17.40;99.90;;;;;;4975786;28;20047;-85
2022/05/26 09:00:36;;;;;;;5.57;0.82;;;17.50;99.90;;;;;;4977417;28;20042;-85
2022/05/26 09:03:03;;;;;;;5.57;1.00;;;17.50;99.90;;;;;;4977070;28;20040;-85
2022/05/26 09:05:38;;;;;;;6.70;1.10;;;17.60;99.90;;;;;;4977079;28;20046;-85
2022/05/26 09:14:33;;;;;;;6.57;1.08;;;17.60;99.90;;;;;;4942566;28;20072;-86
2022/05/26 09:17:07;;;;;;;8.57;1.30;;;17.60;99.90;;;;;;4990390;28;20045;-86
2022/05/26 09:19:46;;;;;;;5.55;1.05;;;17.60;99.90;;;;;;4982997;28;20038;-85
2022/05/26 09:22:46;;;;;;;5.63;0.90;;;17.60;99.90;;;;;;4977311;28;20451;-85
2022/05/26 09:25:29;;;;;;;6.72;1.08;;;17.70;98.30;;;;;;4977235;28;20431;-85
2022/05/26 09:27:55;;;;;;;6.90;1.00;;;17.70;98.10;;;;;;4977295;28;20128;-86
2022/05/26 09:30:22;;;;;;;5.43;0.90;;;17.80;99.30;;;;;;4977027;28;20516;-85
2022/05/26 09:32:49;;;;;;;4.93;1.00;;;17.90;99.30;;;;;;4961240;28;20129;-85
2022/05/26 09:35:26;;;;;;;6.15;0.93;;;17.80;97.80;;;;;;4976965;28;20125;-85
2022/05/26 09:38:03;;;;;;;6.05;1.00;;;17.70;98.30;;;;;;4976750;28;20157;-85
2022/05/26 09:40:40;;;;;;;6.15;1.38;;;17.60;99.20;;;;;;4960689;28;20039;-86
2022/05/26 09:43:21;;;;;;;7.57;1.30;;;17.50;99.80;;;;;;4976812;28;20091;-85
2022/05/26 09:45:55;;;;;;;5.00;0.98;;;17.50;99.90;;;;;;4976939;28;20345;-85
2022/05/26 09:48:35;;;;;;;7.22;1.20;;;17.60;99.90;;;;;;4976261;28;20042;-85
2022/05/26 09:51:44;;;;;;;6.50;1.30;;;17.70;99.90;;;;;;4976980;28;20444;-85
2022/05/26 09:54:26;;;;;;;5.70;1.13;;;17.80;99.00;;;;;;4939993;28;20055;-85
2022/05/26 09:56:52;;;;;;;6.47;1.10;;;18.00;99.90;;;;;;4976659;28;20046;-85
2022/05/26 09:59:29;;;;;;;4.65;1.13;;;18.10;99.90;;;;;;4976436;28;20065;-85
2022/05/26 10:02:14;;;;;;;7.07;1.30;;;18.20;99.90;;;;;;4976492;28;20038;-85
2022/05/26 10:05:02;;;;;;;5.15;1.20;;;18.40;99.90;;;;;;4960360;28;20038;-85
2022/05/26 10:07:46;;;;;;;7.07;1.33;;;18.40;99.90;;;;;;4976158;28;20046;-85
2022/05/26 10:10:21;;;;;;;7.57;1.20;;;18.50;99.90;;;;;;4976297;28;20042;-85
2022/05/26 10:13:10;;;;;;;9.45;1.63;;;18.60;99.90;;;;;;4960157;28;20124;-85
2022/05/26 10:16:15;;;;;;;6.82;1.40;;;18.80;99.90;;;;;;4976463;28;20042;-85
2022/05/26 10:18:46;;;;;;;6.45;1.13;;;18.90;96.20;;;;;;4975742;28;20046;-85
2022/05/26 10:21:30;;;;;;;7.97;1.33;;;18.90;96.30;;;;;;4976185;28;20046;-85
2022/05/26 10:24:24;;;;;;;5.65;1.02;;;18.90;97.40;;;;;;4976015;28;20034;-85
2022/05/26 10:27:02;;;;;;;7.18;1.20;;;18.70;97.70;;;;;;4958165;28;20104;-85
2022/05/26 10:29:32;;;;;;;6.55;1.10;;;18.50;95.90;;;;;;4955887;28;20442;-85
2022/05/26 10:32:36;;;;;;;7.45;1.45;;;18.40;95.90;;;;;;4975497;28;20041;-85
2022/05/26 10:35:22;;;;;;;6.68;1.20;;;18.30;97.00;;;;;;4972843;28;20034;-85
2022/05/26 10:37:56;;;;;;;5.20;1.25;;;18.10;98.40;;;;;;4959117;28;20074;-85
2022/05/26 10:40:46;;;;;;;7.30;1.40;;;18.00;99.70;;;;;;4972751;28;20526;-85
2022/05/26 10:43:21;;;;;;;7.20;1.67;;;18.00;99.90;;;;;;4959344;28;20374;-85
2022/05/26 10:45:48;;;;;;;5.78;1.45;;;17.90;99.90;;;;;;4959333;28;20030;-85
2022/05/26 10:48:45;;;;;;;6.43;1.42;;;17.90;99.90;;;;;;4974589;28;20554;-85
2022/05/26 10:51:21;;;;;;;9.02;2.03;;;17.80;99.90;;;;;;4974995;28;20139;-85
2022/05/26 10:54:02;;;;;;;9.35;1.70;;;17.70;99.90;;;;;;4974549;28;20042;-85
2022/05/26 10:56:42;;;;;;;6.80;1.65;;;17.80;99.90;;;;;;4975257;28;20046;-85
2022/05/26 10:59:20;;;;;;;5.95;1.40;;;17.90;99.90;;;;;;4991340;28;20238;-85
2022/05/26 11:02:14;;;;;;;4.95;1.50;;;17.90;99.90;;;;;;4975160;28;20042;-85
2022/05/26 11:05:02;;;;;;;6.22;1.60;;;18.00;99.90;;;;;;4975531;28;20651;-86
2022/05/26 11:07:38;;;;;;;9.07;1.80;;;17.90;99.90;;;;;;5007622;28;20530;-85
2022/05/26 11:10:29;;;;;;;5.68;1.52;;;17.90;99.90;;;;;;4975322;28;20496;-85
2022/05/26 11:13:00;;;;;;;7.03;1.80;;;17.90;99.90;;;;;;4975229;28;20042;-85
2022/05/26 11:18:31;;;;;;;10.98;2.10;;;18.00;99.90;;;;;;5007381;28;20137;-85
2022/05/26 11:20:58;;;;;;;7.93;2.42;;;18.20;99.90;;;;;;4975502;28;20411;-85
2022/05/26 11:23:26;;;;;;;9.07;2.38;;;18.30;99.90;;;;;;5007956;28;20091;-85
2022/05/26 11:26:08;;;;;;;8.85;2.10;;;18.60;99.90;;;;;;4959195;28;20042;-85
2022/05/26 11:28:41;;;;;;;9.48;2.33;;;18.80;99.90;;;;;;4974965;28;20053;-85
2022/05/26 11:37:03;;;;;;;8.13;1.90;;;18.80;99.90;;;;;;5007586;28;20508;-85
2022/05/26 11:39:39;;;;;;;9.38;1.70;;;18.90;99.90;;;;;;4990937;28;20281;-85
2022/05/26 11:42:08;;;;;;;7.00;1.67;;;19.00;99.90;;;;;;4974887;28;20531;-85
2022/05/26 11:45:09;;;;;;;7.93;1.77;;;19.00;99.90;;;;;;4974922;28;20046;-85
2022/05/26 11:47:52;;;;;;;8.98;1.98;;;18.90;99.90;;;;;;4969622;28;20066;-85
2022/05/26 11:50:26;;;;;;;6.72;1.73;;;18.90;99.90;;;;;;4991047;28;20043;-85
2022/05/26 11:52:52;;;;;;;6.90;1.67;;;19.00;99.90;;;;;;4975095;28;20046;-85
2022/05/26 11:55:17;;;;;;;9.10;1.55;;;18.90;99.90;;;;;;4974761;28;20044;-85
2022/05/26 11:57:43;;;;;;;7.30;1.60;;;19.00;99.90;;;;;;4988963;28;20856;-85
2022/05/26 12:00:17;;;;;;;6.10;1.30;;;19.10;99.40;;;;;;4971771;28;20133;-85
2022/05/26 12:02:50;;;;;;;6.40;1.52;;;19.30;99.90;;;;;;4971803;28;20038;-85
2022/05/26 12:05:48;;;;;;;6.40;1.30;;;19.40;99.10;;;;;;4971540;28;20687;-84
2022/05/26 12:08:29;;;;;;;6.05;1.50;;;19.30;99.00;;;;;;4874947;29;20093;-85
2022/05/26 12:10:59;;;;;;;6.03;1.83;;;19.30;99.00;;;;;;4860187;29;20483;-85
2022/05/26 12:13:27;;;;;;;7.28;1.80;;;19.40;98.60;;;;;;4875577;29;20491;-85
2022/05/26 12:16:14;;;;;;;8.85;1.42;;;19.60;99.90;;;;;;4878810;29;20048;-85
2022/05/26 12:18:46;;;;;;;7.10;1.50;;;19.70;96.20;;;;;;4878759;29;20752;-85
2022/05/26 12:21:33;;;;;;;9.00;1.90;;;19.60;94.50;;;;;;4878996;29;20550;-85
2022/05/26 12:24:30;;;;;;;7.40;1.52;;;19.40;96.80;;;;;;4863458;29;20052;-85
2022/05/26 12:26:56;;;;;;;7.03;1.70;;;19.20;96.80;;;;;;4878782;29;20049;-85
2022/05/26 12:29:41;;;;;;;9.50;2.00;;;19.30;99.80;;;;;;4878472;29;20044;-86
2022/05/26 12:32:26;;;;;;;8.75;1.90;;;19.60;98.00;;;;;;4894675;29;20053;-85
2022/05/26 12:35:05;;;;;;;9.13;1.65;;;19.40;96.90;;;;;;4878763;29;20051;-85
2022/05/26 12:37:43;;;;;;;8.65;1.38;;;19.30;99.40;;;;;;4878452;29;20053;-85
2022/05/26 12:40:15;;;;;;;8.82;1.67;;;19.20;98.60;;;;;;4878579;29;20051;-85
2022/05/26 12:43:18;;;;;;;7.22;1.73;;;19.30;99.90;;;;;;4878827;29;20172;-85
2022/05/26 12:45:48;;;;;;;;;;;19.50;99.70;;;;;;4971612;28;20050;-85
2022/05/26 12:48:48;;;;;;;9.27;1.55;;;19.50;97.40;;;;;;4993631;28;20264;-86
2022/05/26 12:51:15;;;;;;;7.65;1.70;;;19.50;97.50;;;;;;4961817;28;20070;-85
2022/05/26 12:53:50;;;;;;;7.00;1.65;;;19.40;97.00;;;;;;5010580;28;20447;-85
2022/05/26 12:56:46;;;;;;;7.05;1.67;;;19.40;98.30;;;;;;5010163;28;20137;-85
2022/05/26 12:59:20;;;;;;;7.35;1.60;;;19.50;99.40;;;;;;4993856;28;20046;-85
2022/05/26 13:01:48;;;;;;;7.55;1.48;;;19.50;96.70;;;;;;4977720;28;20034;-85
2022/05/26 13:04:20;;;;;;;8.07;1.50;;;19.60;95.90;;;;;;4993834;28;20089;-85
2022/05/26 13:06:49;;;;;;;9.25;1.52;;;19.70;99.80;;;;;;5010197;28;20573;-85
2022/05/26 13:09:25;;;;;;;9.32;1.58;;;19.60;97.20;;;;;;4993572;28;20546;-85
2022/05/26 13:11:53;;;;;;;7.28;1.50;;;19.60;96.80;;;;;;4976567;28;20061;-85
2022/05/26 13:14:31;;;;;;;8.55;1.88;;;19.80;96.60;;;;;;4977160;28;20054;-85
2022/05/26 13:17:24;;;;;;;7.60;1.80;;;20.00;99.60;;;;;;4977447;28;20058;-85
2022/05/26 13:19:52;;;;;;;9.75;1.67;;;20.10;95.30;;;;;;4993290;28;20125;-85
2022/05/26 13:22:26;;;;;;;10.02;1.70;;;20.10;94.50;;;;;;4993498;28;20043;-85
2022/05/26 13:25:08;;;;;;;6.90;1.50;;;20.10;96.50;;;;;;5009505;28;20077;-85
2022/05/26 13:27:52;;;;;;;9.88;2.10;;;20.10;95.10;;;;;;5009806;28;20057;-85
2022/05/26 13:33:21;;;;;;;9.88;2.40;;;20.00;96.60;;;;;;4999289;28;20054;-85
2022/05/26 13:35:59;;;;;;;9.80;2.20;;;20.00;96.40;;;;;;4977075;28;20092;-85
2022/05/26 13:38:28;;;;;;;10.82;1.95;;;20.00;98.70;;;;;;4976267;28;20084;-85
2022/05/26 13:40:55;;;;;;;11.05;2.00;;;20.00;98.40;;;;;;4987539;28;20042;-85
2022/05/26 13:43:21;;;;;;;7.53;1.73;;;19.90;99.90;;;;;;5009368;28;20226;-85
2022/05/26 13:45:47;;;;;;;8.65;1.85;;;19.90;99.40;;;;;;4992992;28;20038;-85
2022/05/26 13:48:31;;;;;;;9.82;1.83;;;19.80;96.60;;;;;;4992682;28;20085;-85